createdAt,value
2022-09-12T00:02:14.507Z,4.22
2022-09-12T00:04:44.648Z,4.82
2022-09-12T00:07:14.785Z,5.07
2022-09-12T00:09:45.028Z,4.70
2022-09-12T00:12:15.237Z,4.40
2022-09-12T00:14:45.428Z,4.60
2022-09-12T00:17:18.197Z,4.70
2022-09-12T00:19:48.328Z,4.22
2022-09-12T00:22:18.477Z,5.30
2022-09-12T00:24:48.723Z,4.75
2022-09-12T00:27:18.841Z,4.60
2022-09-12T00:29:48.988Z,4.25
2022-09-12T00:32:21.775Z,3.97
2022-09-12T00:34:51.889Z,3.40
2022-09-12T00:37:22.033Z,3.92
2022-09-12T00:39:52.423Z,3.88
2022-09-12T00:42:22.573Z,3.53
2022-09-12T00:44:53.949Z,3.55
2022-09-12T00:47:28.312Z,3.78
2022-09-12T00:50:01.676Z,3.60
2022-09-12T00:52:33.062Z,3.10
2022-09-12T00:55:05.717Z,3.25
2022-09-12T00:57:40.464Z,2.97
2022-09-12T01:00:15.481Z,2.72
2022-09-12T01:02:50.261Z,2.97
2022-09-12T01:05:20.646Z,2.83
2022-09-12T01:07:50.800Z,2.65
2022-09-12T01:10:22.236Z,2.38
2022-09-12T01:25:32.189Z,2.45
2022-09-12T01:28:09.341Z,2.45
2022-09-12T01:30:48.245Z,1.70
2022-09-12T01:33:33.444Z,2.40
2022-09-12T01:36:09.457Z,2.00
2022-09-12T01:38:43.509Z,2.55
2022-09-12T01:41:17.742Z,1.88
2022-09-12T01:43:50.807Z,1.92
2022-09-12T01:46:26.794Z,1.75
2022-09-12T01:48:58.901Z,2.58
2022-09-12T01:51:31.176Z,2.92
2022-09-12T01:54:04.567Z,2.20
2022-09-12T01:56:38.362Z,2.63
2022-09-12T01:59:10.118Z,2.50
2022-09-12T02:01:50.821Z,2.28
2022-09-12T02:04:23.345Z,2.47
2022-09-12T02:06:58.225Z,2.35
2022-09-12T02:09:32.115Z,2.33
2022-09-12T02:12:03.733Z,2.45
2022-09-12T02:14:36.943Z,2.33
2022-09-12T02:17:12.129Z,2.73
2022-09-12T02:19:44.688Z,3.00
2022-09-12T02:22:17.445Z,2.30
2022-09-12T02:24:49.606Z,2.65
2022-09-12T02:27:21.633Z,3.00
2022-09-12T02:29:52.239Z,2.28
2022-09-12T02:32:30.190Z,2.70
2022-09-12T02:35:08.786Z,3.10
2022-09-12T02:37:55.053Z,2.67
2022-09-12T02:40:25.757Z,2.63
2022-09-12T02:42:56.117Z,2.42
2022-09-12T02:45:26.379Z,2.72
2022-09-12T02:48:02.968Z,2.75
2022-09-12T02:50:33.460Z,2.78
2022-09-12T02:53:07.175Z,2.60
2022-09-12T02:55:38.596Z,2.53
2022-09-12T02:58:11.841Z,2.10
2022-09-12T03:00:47.372Z,2.30
2022-09-12T03:03:43.484Z,2.15
2022-09-12T03:06:21.647Z,2.13
2022-09-12T03:09:05.845Z,1.80
2022-09-12T03:12:05.310Z,1.83
2022-09-12T03:14:46.966Z,2.10
2022-09-12T03:17:27.090Z,2.13
2022-09-12T03:20:02.605Z,2.08
2022-09-12T03:22:35.623Z,2.15
2022-09-12T03:25:09.802Z,2.00
2022-09-12T03:27:43.845Z,1.92
2022-09-12T03:30:14.809Z,2.10
2022-09-12T03:32:45.943Z,2.17
2022-09-12T03:35:22.875Z,2.03
2022-09-12T03:37:54.404Z,2.20
2022-09-12T03:40:24.616Z,1.80
2022-09-12T03:42:54.745Z,2.60
2022-09-12T03:45:25.036Z,2.22
2022-09-12T03:47:55.193Z,2.72
2022-09-12T03:50:27.942Z,2.47
2022-09-12T03:52:58.076Z,2.28
2022-09-12T03:55:28.203Z,2.30
2022-09-12T03:57:58.906Z,1.90
2022-09-12T04:00:29.112Z,2.03
2022-09-12T04:02:59.623Z,1.67
2022-09-12T04:05:32.405Z,2.00
2022-09-12T04:08:02.541Z,2.10
2022-09-12T04:10:32.673Z,1.80
2022-09-12T04:13:02.884Z,1.98
2022-09-12T04:15:33.068Z,2.85
2022-09-12T04:18:06.005Z,2.28
2022-09-12T04:20:39.556Z,2.50
2022-09-12T04:23:09.708Z,2.15
2022-09-12T04:25:39.852Z,3.00
2022-09-12T04:28:10.012Z,2.35
2022-09-12T04:30:40.423Z,2.45
2022-09-12T04:33:10.592Z,2.47
2022-09-12T04:35:43.560Z,2.40
2022-09-12T04:38:13.715Z,2.03
2022-09-12T04:40:43.859Z,2.33
2022-09-12T04:43:14.753Z,2.67
2022-09-12T04:45:45.047Z,2.70
2022-09-12T04:48:15.217Z,2.63
2022-09-12T04:50:48.013Z,3.13
2022-09-12T04:53:18.172Z,2.13
2022-09-12T04:55:48.369Z,2.50
2022-09-12T04:58:18.549Z,1.85
2022-09-12T05:00:49.009Z,2.10
2022-09-12T05:03:19.144Z,1.90
2022-09-12T05:05:56.268Z,2.65
2022-09-12T05:08:26.650Z,2.55
2022-09-12T05:10:57.165Z,2.72
2022-09-12T05:13:27.496Z,2.03
2022-09-12T05:15:57.945Z,2.55
2022-09-12T05:18:28.961Z,2.38
2022-09-12T05:21:02.402Z,2.53
2022-09-12T05:23:32.585Z,2.25
2022-09-12T05:26:03.248Z,2.20
2022-09-12T05:28:34.886Z,2.15
2022-09-12T05:31:05.750Z,2.42
2022-09-12T05:33:36.856Z,2.22
2022-09-12T05:36:12.385Z,2.30
2022-09-12T05:38:42.864Z,2.00
2022-09-12T05:41:18.243Z,2.38
2022-09-12T05:43:50.435Z,2.55
2022-09-12T05:46:22.258Z,3.13
2022-09-12T05:48:56.104Z,2.67
2022-09-12T05:51:31.177Z,2.38
2022-09-12T05:54:03.323Z,3.08
2022-09-12T05:56:34.645Z,3.00
2022-09-12T05:59:06.622Z,2.63
2022-09-12T06:01:38.248Z,2.45
2022-09-12T06:04:10.482Z,2.50
2022-09-12T06:06:45.113Z,2.60
2022-09-12T06:09:16.174Z,2.63
2022-09-12T06:11:46.708Z,2.78
2022-09-12T06:14:18.260Z,3.60
2022-09-12T06:16:49.930Z,3.20
2022-09-12T06:19:20.829Z,3.53
2022-09-12T06:21:53.570Z,3.30
2022-09-12T06:24:24.407Z,2.95
2022-09-12T06:26:55.267Z,3.90
2022-09-12T06:29:25.885Z,2.88
2022-09-12T06:31:56.009Z,3.35
2022-09-12T06:34:27.133Z,3.67
2022-09-12T06:36:59.906Z,3.70
2022-09-12T06:39:31.527Z,3.53
2022-09-12T06:42:01.675Z,4.07
2022-09-12T06:44:39.284Z,3.72
2022-09-12T06:47:10.022Z,4.00
2022-09-12T06:49:40.188Z,4.68
2022-09-12T06:52:12.909Z,4.88
2022-09-12T06:54:43.056Z,3.50
2022-09-12T06:57:13.178Z,3.90
2022-09-12T06:59:43.022Z,4.00
2022-09-12T07:02:13.193Z,4.70
2022-09-12T07:04:43.436Z,4.47
2022-09-12T07:07:16.152Z,7.32
2022-09-12T07:09:46.304Z,5.47
2022-09-12T07:12:16.437Z,5.85
2022-09-12T07:14:46.582Z,5.40
2022-09-12T07:17:16.894Z,5.88
2022-09-12T07:19:47.541Z,7.15
2022-09-12T07:22:20.013Z,7.43
2022-09-12T07:24:50.233Z,8.75
2022-09-12T07:27:20.078Z,8.60
2022-09-12T07:29:49.936Z,8.73
2022-09-12T07:32:19.793Z,8.30
2022-09-12T07:34:49.994Z,8.50
2022-09-12T07:37:22.493Z,8.45
2022-09-12T07:39:52.642Z,8.90
2022-09-12T07:42:22.524Z,9.48
2022-09-12T07:44:53.745Z,8.52
2022-09-12T07:47:23.674Z,8.32
2022-09-12T07:49:53.796Z,8.85
2022-09-12T07:52:26.249Z,7.78
2022-09-12T07:54:56.114Z,9.43
2022-09-12T07:57:26.283Z,9.65
2022-09-12T07:59:56.132Z,9.18
2022-09-12T08:02:26.334Z,9.52
2022-09-12T08:04:56.218Z,9.63
2022-09-12T08:07:28.693Z,8.45
2022-09-12T08:09:58.800Z,9.20
2022-09-12T08:12:28.909Z,10.93
2022-09-12T08:14:59.076Z,8.77
2022-09-12T08:17:29.636Z,9.15
2022-09-12T08:19:59.555Z,9.48
2022-09-12T08:22:33.510Z,8.90
2022-09-12T08:25:03.744Z,9.00
2022-09-12T08:27:33.608Z,10.25
2022-09-12T08:30:03.744Z,9.13
2022-09-12T08:32:33.930Z,8.80
2022-09-12T08:35:04.132Z,9.07
2022-09-12T08:37:36.868Z,8.80
2022-09-12T08:40:09.425Z,9.25
2022-09-12T08:42:47.845Z,7.53
2022-09-12T08:45:21.570Z,7.47
2022-09-12T08:47:52.373Z,7.47
2022-09-12T08:50:24.950Z,6.10
2022-09-12T08:53:03.001Z,6.40
2022-09-12T08:55:35.527Z,6.35
2022-09-12T08:58:14.663Z,5.93
2022-09-12T09:00:51.575Z,6.10
2022-09-12T09:03:51.586Z,5.78
2022-09-12T09:06:31.712Z,5.25
2022-09-12T09:09:14.066Z,5.15
2022-09-12T09:11:54.946Z,4.60
2022-09-12T09:14:51.690Z,3.95
2022-09-12T09:17:27.685Z,4.07
2022-09-12T09:20:06.024Z,3.78
2022-09-12T09:22:40.516Z,4.07
2022-09-12T09:25:22.928Z,3.03
2022-09-12T09:28:01.042Z,5.00
2022-09-12T09:30:31.377Z,5.45
2022-09-12T09:33:03.417Z,4.15
2022-09-12T09:35:43.010Z,3.78
2022-09-12T09:38:26.187Z,4.07
2022-09-12T09:41:18.774Z,3.80
2022-09-12T09:43:48.960Z,3.47
2022-09-12T09:46:19.163Z,3.00
2022-09-12T09:48:51.524Z,2.67
2022-09-12T09:51:27.908Z,3.00
2022-09-12T09:54:00.973Z,3.05
2022-09-12T09:56:37.247Z,2.60
2022-09-12T09:59:14.489Z,3.53
2022-09-12T10:01:49.440Z,2.78
2022-09-12T10:04:23.884Z,2.95
2022-09-12T10:06:58.834Z,3.40
2022-09-12T10:09:29.866Z,3.50
2022-09-12T10:12:04.661Z,3.30
2022-09-12T10:14:42.437Z,3.08
2022-09-12T10:17:29.511Z,3.00
2022-09-12T10:20:20.436Z,3.25
2022-09-12T10:22:51.890Z,3.60
2022-09-12T10:25:23.025Z,2.92
2022-09-12T10:28:00.701Z,3.00
2022-09-12T10:30:31.100Z,3.45
2022-09-12T10:33:02.844Z,2.72
2022-09-12T10:35:34.531Z,2.33
2022-09-12T10:38:07.387Z,2.60
2022-09-12T10:40:41.244Z,2.58
2022-09-12T10:43:29.698Z,2.92
2022-09-12T10:46:23.597Z,2.70
2022-09-12T10:48:54.451Z,2.15
2022-09-12T10:51:31.507Z,2.63
2022-09-12T10:54:03.602Z,2.08
2022-09-12T10:56:35.524Z,2.47
2022-09-12T10:59:24.241Z,2.00
2022-09-12T11:01:59.264Z,2.35
2022-09-12T11:04:34.234Z,2.40
2022-09-12T11:07:25.622Z,2.10
2022-09-12T11:09:57.953Z,2.13
2022-09-12T11:12:34.438Z,2.35
2022-09-12T11:15:25.031Z,2.47
2022-09-12T11:17:58.721Z,2.17
2022-09-12T11:20:38.894Z,1.83
2022-09-12T11:23:23.901Z,2.17
2022-09-12T11:25:56.478Z,1.92
2022-09-12T11:28:31.883Z,2.20
2022-09-12T11:31:18.670Z,1.95
2022-09-12T11:33:49.444Z,1.90
2022-09-12T11:36:35.833Z,2.08
2022-09-12T11:39:09.637Z,1.85
2022-09-12T11:41:44.134Z,2.63
2022-09-12T11:44:18.121Z,2.35
2022-09-12T11:46:52.124Z,1.90
2022-09-12T11:49:32.301Z,2.47
2022-09-12T11:52:07.431Z,2.50
2022-09-12T11:54:39.871Z,2.55
2022-09-12T11:57:15.116Z,2.03
2022-09-12T11:59:50.509Z,2.30
2022-09-12T12:02:28.902Z,1.80
2022-09-12T12:05:03.187Z,1.85
2022-09-12T12:07:35.707Z,1.88
2022-09-12T12:10:05.887Z,1.70
2022-09-12T12:12:36.148Z,1.60
2022-09-12T12:15:06.335Z,1.90
2022-09-12T12:17:41.888Z,1.75
2022-09-12T12:20:18.742Z,2.08
2022-09-12T12:22:55.049Z,1.67
2022-09-12T12:25:40.326Z,1.70
2022-09-12T12:28:10.809Z,1.38
2022-09-12T12:31:05.498Z,1.90
2022-09-12T12:33:50.782Z,1.63
2022-09-12T12:36:36.134Z,1.38
2022-09-12T12:39:21.112Z,1.70
2022-09-12T12:41:51.311Z,1.58
2022-09-12T12:44:51.461Z,1.92
2022-09-12T12:47:24.449Z,2.20
2022-09-12T12:49:56.905Z,2.00
2022-09-12T12:52:34.296Z,2.10
2022-09-12T12:55:04.988Z,1.60
2022-09-12T12:57:49.392Z,1.60
2022-09-12T13:00:31.088Z,1.77
2022-09-12T13:03:04.356Z,1.55
2022-09-12T13:05:42.917Z,1.52
2022-09-12T13:08:33.672Z,1.80
2022-09-12T13:11:06.861Z,1.90
2022-09-12T13:13:39.464Z,1.75
2022-09-12T13:16:09.889Z,1.83
2022-09-12T13:18:46.176Z,1.70
2022-09-12T13:21:17.944Z,1.55
2022-09-12T13:24:02.590Z,1.55
2022-09-12T13:26:36.908Z,1.70
2022-09-12T13:29:13.416Z,2.00
2022-09-12T13:31:47.379Z,1.65
2022-09-12T13:34:20.532Z,1.25
2022-09-12T13:37:21.232Z,1.98
2022-09-12T13:40:03.121Z,2.03
2022-09-12T13:42:42.598Z,1.60
2022-09-12T13:45:22.755Z,1.75
2022-09-12T13:47:58.697Z,1.90
2022-09-12T13:50:31.114Z,1.52
2022-09-12T13:53:02.646Z,1.60
2022-09-12T13:55:36.617Z,2.05
2022-09-12T13:58:08.519Z,1.90
2022-09-12T14:00:38.817Z,1.90
2022-09-12T14:03:36.589Z,1.90
2022-09-12T14:06:08.511Z,1.98
2022-09-12T14:08:43.099Z,1.60
2022-09-12T14:11:19.868Z,2.25
2022-09-12T14:13:50.381Z,1.88
2022-09-12T14:16:21.305Z,1.50
2022-09-12T14:18:51.867Z,2.08
2022-09-12T14:21:36.700Z,1.80
2022-09-12T14:24:09.888Z,2.05
2022-09-12T14:26:43.097Z,1.33
2022-09-12T14:29:16.825Z,2.05
2022-09-12T14:31:47.090Z,1.73
2022-09-12T14:34:18.492Z,2.28
2022-09-12T14:36:50.037Z,2.08
2022-09-12T14:39:32.821Z,1.88
2022-09-12T14:42:08.979Z,1.85
2022-09-12T14:44:39.409Z,2.00
2022-09-12T14:47:17.571Z,1.80
2022-09-12T14:49:47.848Z,1.90
2022-09-12T14:52:36.472Z,1.95
2022-09-12T14:55:08.330Z,1.85
2022-09-12T14:57:44.419Z,1.58
2022-09-12T15:00:24.641Z,1.88
2022-09-12T15:02:55.707Z,1.80
2022-09-12T15:05:28.597Z,1.90
2022-09-12T15:08:00.415Z,2.05
2022-09-12T15:10:31.703Z,1.70
2022-09-12T15:13:16.822Z,2.30
2022-09-12T15:15:47.910Z,1.90
2022-09-12T15:18:18.276Z,1.98
2022-09-12T15:20:49.413Z,2.08
2022-09-12T15:23:21.939Z,1.92
2022-09-12T15:25:52.148Z,2.05
2022-09-12T15:28:26.898Z,2.05
2022-09-12T15:30:58.649Z,1.85
2022-09-12T15:33:28.993Z,1.83
2022-09-12T15:35:59.109Z,3.15
2022-09-12T15:38:29.395Z,2.13
2022-09-12T15:40:59.517Z,2.30
2022-09-12T15:43:32.297Z,2.05
2022-09-12T15:46:06.708Z,1.70
2022-09-12T15:48:37.952Z,1.90
2022-09-12T15:51:10.628Z,1.80
2022-09-12T15:53:42.539Z,2.20
2022-09-12T15:56:12.778Z,1.80
2022-09-12T15:58:57.619Z,1.90
2022-09-12T16:01:29.725Z,2.05
2022-09-12T16:04:00.125Z,1.70
2022-09-12T16:06:36.811Z,1.95
2022-09-12T16:09:07.749Z,2.28
2022-09-12T16:11:37.884Z,1.88
2022-09-12T16:14:10.977Z,2.15
2022-09-12T16:16:41.260Z,1.80
2022-09-12T16:19:12.376Z,1.95
2022-09-12T16:21:42.515Z,2.00
2022-09-12T16:24:13.744Z,1.73
2022-09-12T16:26:43.878Z,2.25
2022-09-12T16:29:17.084Z,1.92
2022-09-12T16:31:47.223Z,2.53
2022-09-12T16:34:17.405Z,2.40
2022-09-12T16:36:47.525Z,2.17
2022-09-12T16:39:17.676Z,2.20
2022-09-12T16:41:47.780Z,2.05
2022-09-12T16:44:20.633Z,2.47
2022-09-12T16:46:51.188Z,2.40
2022-09-12T16:49:21.721Z,2.13
2022-09-12T16:51:51.959Z,2.10
2022-09-12T16:54:22.091Z,2.13
2022-09-12T16:56:52.268Z,2.53
2022-09-12T16:59:25.279Z,2.17
2022-09-12T17:01:55.493Z,2.10
2022-09-12T17:04:26.257Z,2.33
2022-09-12T17:06:59.353Z,2.40
2022-09-12T17:09:29.533Z,2.43
2022-09-12T17:12:00.663Z,2.40
2022-09-12T17:14:33.473Z,2.17
2022-09-12T17:17:03.593Z,2.38
2022-09-12T17:19:33.753Z,2.47
2022-09-12T17:22:03.614Z,2.28
2022-09-12T17:24:33.795Z,2.67
2022-09-12T17:27:04.096Z,2.40
2022-09-12T17:29:37.193Z,2.65
2022-09-12T17:32:07.521Z,2.33
2022-09-12T17:34:37.657Z,2.47
2022-09-12T17:37:07.796Z,2.60
2022-09-12T17:39:37.917Z,2.13
2022-09-12T17:42:08.258Z,2.47
2022-09-12T17:44:41.007Z,2.78
2022-09-12T17:47:11.132Z,3.08
2022-09-12T17:49:41.243Z,2.60
2022-09-12T17:52:11.986Z,2.80
2022-09-12T17:54:42.216Z,2.40
2022-09-12T17:57:12.481Z,3.17
2022-09-12T17:59:49.252Z,2.20
2022-09-12T18:02:16.791Z,3.08
2022-09-12T18:04:48.501Z,3.78
2022-09-12T18:07:19.632Z,2.72
2022-09-12T18:09:50.381Z,2.97
2022-09-12T18:12:21.226Z,3.17
2022-09-12T18:14:54.110Z,3.00
2022-09-12T18:17:25.307Z,3.30
2022-09-12T18:19:55.439Z,2.92
2022-09-12T18:22:25.624Z,3.15
2022-09-12T18:24:55.748Z,2.75
2022-09-12T18:27:25.892Z,3.17
2022-09-12T18:30:19.646Z,3.50
2022-09-12T18:32:50.349Z,2.60
2022-09-12T18:35:21.023Z,2.78
2022-09-12T18:37:51.183Z,3.30
2022-09-12T18:40:21.362Z,3.40
2022-09-12T18:42:52.372Z,3.47
2022-09-12T18:45:25.093Z,2.78
2022-09-12T18:47:55.265Z,3.33
2022-09-12T18:50:25.508Z,2.92
2022-09-12T18:52:59.602Z,3.30
2022-09-12T18:55:30.099Z,3.05
2022-09-12T18:58:00.296Z,3.55
2022-09-12T19:00:32.771Z,3.47
2022-09-12T19:03:02.932Z,3.58
2022-09-12T19:05:33.660Z,3.42
2022-09-12T19:08:03.772Z,3.60
2022-09-12T19:10:34.302Z,3.55
2022-09-12T19:13:04.561Z,3.58
2022-09-12T19:15:37.053Z,3.45
2022-09-12T19:18:09.337Z,3.83
2022-09-12T19:20:40.068Z,3.38
2022-09-12T19:23:10.234Z,4.05
2022-09-12T19:25:40.756Z,3.67
2022-09-12T19:28:10.909Z,3.90
2022-09-12T19:30:49.798Z,3.72
2022-09-12T19:33:20.045Z,4.03
2022-09-12T19:35:50.260Z,4.13
2022-09-12T19:38:20.640Z,4.40
2022-09-12T19:40:59.423Z,4.15
2022-09-12T19:43:30.643Z,3.58
2022-09-12T19:46:03.582Z,3.78
2022-09-12T19:48:34.061Z,3.65
2022-09-12T19:51:04.533Z,4.22
2022-09-12T19:53:34.975Z,3.70
2022-09-12T19:56:06.117Z,3.50
2022-09-12T19:58:39.653Z,3.83
2022-09-12T20:01:16.226Z,4.25
2022-09-12T20:03:46.969Z,4.20
2022-09-12T20:06:18.053Z,3.90
2022-09-12T20:08:48.345Z,4.05
2022-09-12T20:11:20.141Z,4.68
2022-09-12T20:13:50.325Z,3.70
2022-09-12T20:16:24.599Z,4.07
2022-09-12T20:18:59.116Z,3.90
2022-09-12T20:21:34.130Z,3.67
2022-09-12T20:24:05.320Z,4.97
2022-09-12T20:26:35.742Z,4.55
2022-09-12T20:29:08.321Z,4.05
2022-09-12T20:31:43.209Z,4.50
2022-09-12T20:34:17.284Z,3.83
2022-09-12T20:36:47.471Z,4.72
2022-09-12T20:39:19.674Z,4.63
2022-09-12T20:41:50.002Z,4.30
2022-09-12T20:44:20.192Z,4.55
2022-09-12T20:46:52.913Z,4.57
2022-09-12T20:49:23.749Z,4.22
2022-09-12T20:51:53.909Z,4.97
2022-09-12T20:54:24.914Z,4.45
2022-09-12T20:56:54.757Z,4.50
2022-09-12T20:59:24.692Z,4.38
2022-09-12T21:01:57.555Z,3.95
2022-09-12T21:04:27.914Z,4.25
2022-09-12T21:06:58.161Z,5.15
2022-09-12T21:09:28.387Z,4.97
2022-09-12T21:11:58.509Z,4.57
2022-09-12T21:14:28.678Z,4.47
2022-09-12T21:17:01.079Z,4.05
2022-09-12T21:19:31.248Z,5.07
2022-09-12T21:22:01.399Z,4.85
2022-09-12T21:24:31.572Z,3.97
2022-09-12T21:27:04.351Z,3.95
2022-09-12T21:29:34.874Z,4.13
2022-09-12T21:32:12.141Z,4.78
2022-09-12T21:34:44.492Z,4.78
2022-09-12T21:37:14.337Z,4.38
2022-09-12T21:39:44.364Z,4.90
2022-09-12T21:42:14.579Z,5.32
2022-09-12T21:44:44.714Z,4.20
2022-09-12T21:47:17.528Z,4.15
2022-09-12T21:49:47.680Z,5.20
2022-09-12T21:52:17.901Z,4.45
2022-09-12T21:54:48.063Z,5.28
2022-09-12T21:57:18.287Z,4.90
2022-09-12T21:59:48.507Z,5.00
2022-09-12T22:02:23.044Z,5.40
2022-09-12T22:04:53.009Z,5.00
2022-09-12T22:07:22.930Z,4.88
2022-09-12T22:09:52.845Z,5.05
2022-09-12T22:12:22.808Z,5.22
2022-09-12T22:14:55.396Z,4.35
2022-09-12T22:17:28.667Z,4.97
2022-09-12T22:19:58.811Z,4.97
2022-09-12T22:22:41.541Z,5.00
2022-09-12T22:25:12.769Z,5.93
2022-09-12T22:27:42.981Z,5.05
2022-09-12T22:30:13.757Z,5.53
2022-09-12T22:32:48.189Z,5.07
2022-09-12T22:35:18.447Z,4.97
2022-09-12T22:37:49.776Z,5.30
2022-09-12T22:40:19.929Z,5.63
2022-09-12T22:42:49.829Z,4.57
2022-09-12T22:45:20.142Z,5.10
2022-09-12T22:47:56.386Z,5.72
2022-09-12T22:50:29.340Z,5.28
2022-09-12T22:52:59.481Z,5.22
2022-09-12T22:55:29.643Z,5.15
2022-09-12T22:57:59.785Z,4.85
2022-09-12T23:00:30.452Z,5.85
2022-09-12T23:03:03.290Z,5.35
2022-09-12T23:05:33.561Z,6.15
2022-09-12T23:08:03.722Z,5.55
2022-09-12T23:10:33.830Z,5.15
2022-09-12T23:13:04.002Z,5.03
2022-09-12T23:15:34.117Z,5.03
2022-09-12T23:18:06.928Z,4.97
2022-09-12T23:20:37.080Z,5.53
2022-09-12T23:23:07.258Z,5.72
2022-09-12T23:25:37.424Z,5.88
2022-09-12T23:28:07.818Z,6.28
2022-09-12T23:30:38.248Z,5.25
2022-09-12T23:33:11.246Z,5.28
2022-09-12T23:35:41.514Z,5.93
2022-09-12T23:38:14.615Z,5.35
2022-09-12T23:40:44.984Z,5.47
2022-09-12T23:43:15.192Z,5.18
2022-09-12T23:45:45.349Z,5.45
2022-09-12T23:48:18.534Z,5.38
2022-09-12T23:50:49.044Z,5.50
2022-09-12T23:53:20.067Z,5.47
2022-09-12T23:55:50.293Z,5.72
2022-09-12T23:58:21.642Z,6.22
